Time;durP1;ratioP1;P1;durP2;ratioP2;P2;SDS_P1;SDS_P2;PMS_P1;PMS_P2;Temp;Humidity;BMP_temperature;BMP_pressure;BME280_temperature;BME280_humidity;BME280_pressure;Samples;Min_cycle;Max_cycle;Signal;HPM_P1;HPM_P2
2022/06/16 00:00:53;;;;;;;5.80;3.73;;;18.00;1.00;;;;;;5059707;28;20454;-77
2022/06/16 00:03:20;;;;;;;7.47;3.43;;;18.00;1.00;;;;;;5057727;28;20609;-77
2022/06/16 00:05:48;;;;;;;7.83;4.07;;;18.00;1.00;;;;;;5061240;28;20459;-76
2022/06/16 00:08:18;;;;;;;7.70;3.93;;;18.00;1.00;;;;;;5058246;28;20853;-77
2022/06/16 00:13:29;;;;;;;6.00;3.80;;;17.90;1.00;;;;;;5056293;28;20482;-76
2022/06/16 00:15:58;;;;;;;6.50;4.40;;;17.90;1.00;;;;;;5062116;28;20451;-77
2022/06/16 00:18:26;;;;;;;6.90;4.17;;;17.90;1.00;;;;;;5058230;28;20480;-77
2022/06/16 00:20:53;;;;;;;6.50;4.10;;;17.80;1.00;;;;;;5060347;28;20520;-76
2022/06/16 00:23:20;;;;;;;6.60;3.60;;;17.80;1.00;;;;;;5056895;28;20463;-77
2022/06/16 00:25:47;;;;;;;6.97;4.37;;;17.70;1.00;;;;;;5061743;28;20449;-77
2022/06/16 00:28:14;;;;;;;8.40;3.80;;;17.70;1.00;;;;;;5061590;28;20471;-77
2022/06/16 00:30:42;;;;;;;6.03;4.10;;;17.70;1.00;;;;;;5061769;28;20456;-77
2022/06/16 00:33:10;;;;;;;6.33;4.30;;;17.60;1.00;;;;;;5059225;28;20555;-78
2022/06/16 00:35:37;;;;;;;8.00;4.20;;;17.60;1.00;;;;;;5060171;28;20558;-76
2022/06/16 00:38:04;;;;;;;7.10;4.03;;;17.60;1.00;;;;;;5061960;28;20927;-76
2022/06/16 00:40:31;;;;;;;6.63;3.70;;;17.50;1.00;;;;;;5059447;28;20531;-76
2022/06/16 00:42:58;;;;;;;7.90;4.67;;;17.50;1.00;;;;;;5059393;28;20459;-76
2022/06/16 00:45:47;;;;;;;7.90;4.40;;;17.40;1.00;;;;;;5057106;28;20489;-76
2022/06/16 00:48:20;;;;;;;10.30;4.37;;;17.30;1.00;;;;;;5059148;28;20470;-77
2022/06/16 00:50:49;;;;;;;6.90;3.90;;;17.30;1.00;;;;;;5061316;28;20471;-77
2022/06/16 00:53:16;;;;;;;6.90;4.20;;;17.20;1.00;;;;;;5060365;28;20563;-77
2022/06/16 00:55:44;;;;;;;8.77;4.53;;;17.20;1.00;;;;;;5058138;28;20471;-77
2022/06/16 00:58:11;;;;;;;7.10;3.90;;;17.10;1.00;;;;;;5058292;28;20472;-76
2022/06/16 01:00:44;;;;;;;6.37;3.90;;;17.00;1.00;;;;;;5060005;28;20543;-77
2022/06/16 01:03:12;;;;;;;8.13;4.10;;;17.00;1.00;;;;;;5056806;28;20466;-76
2022/06/16 01:05:41;;;;;;;6.23;3.90;;;17.00;1.00;;;;;;5061669;28;20514;-77
2022/06/16 01:08:08;;;;;;;8.87;3.90;;;16.90;1.00;;;;;;5057523;28;20545;-77
2022/06/16 01:10:43;;;;;;;7.83;4.60;;;16.90;1.00;;;;;;5059167;28;20472;-77
2022/06/16 01:16:17;;;;;;;6.33;4.20;;;16.80;1.00;;;;;;5061252;28;20959;-77
2022/06/16 01:18:53;;;;;;;7.30;4.47;;;16.80;1.00;;;;;;5054670;28;21890;-77
2022/06/16 01:21:30;;;;;;;7.93;3.80;;;16.70;1.00;;;;;;5056185;28;20434;-77
2022/06/16 01:24:24;;;;;;;10.97;4.53;;;16.60;1.00;;;;;;5052867;28;20451;-77
2022/06/16 01:27:26;;;;;;;7.47;4.23;;;16.60;1.00;;;;;;5059428;28;20554;-77
2022/06/16 01:30:02;;;;;;;10.03;4.13;;;16.50;1.00;;;;;;5061904;28;20439;-77
2022/06/16 01:32:35;;;;;;;6.97;4.40;;;16.40;1.00;;;;;;5057080;28;20556;-77
2022/06/16 01:35:22;;;;;;;10.13;4.73;;;16.40;1.00;;;;;;5058976;28;21251;-76
2022/06/16 01:37:59;;;;;;;7.63;4.10;;;16.40;1.00;;;;;;5060509;28;20455;-77
2022/06/16 01:40:32;;;;;;;7.73;4.03;;;16.30;1.00;;;;;;5061297;28;20482;-77
2022/06/16 01:43:06;;;;;;;7.23;4.77;;;16.30;1.00;;;;;;5061865;28;20993;-77
2022/06/16 01:45:41;;;;;;;8.73;4.60;;;16.30;1.00;;;;;;5058726;28;20440;-76
2022/06/16 01:48:12;;;;;;;7.10;3.93;;;16.30;1.00;;;;;;5061546;28;20407;-76
2022/06/16 01:50:45;;;;;;;8.30;4.50;;;16.20;1.00;;;;;;5054747;28;20483;-77
2022/06/16 01:53:17;;;;;;;11.83;4.90;;;16.20;1.00;;;;;;5054074;28;20533;-76
2022/06/16 01:55:50;;;;;;;9.60;4.90;;;16.20;1.00;;;;;;5054640;28;20603;-77
2022/06/16 01:58:22;;;;;;;7.87;4.60;;;16.20;1.00;;;;;;5054431;28;22134;-77
2022/06/16 02:00:55;;;;;;;10.97;5.27;;;16.20;1.00;;;;;;5055195;28;21301;-77
2022/06/16 02:03:28;;;;;;;8.27;4.63;;;16.20;1.00;;;;;;5055766;28;20553;-77
2022/06/16 02:06:01;;;;;;;8.33;5.50;;;16.20;1.00;;;;;;5058966;28;20417;-76
2022/06/16 02:08:32;;;;;;;9.00;4.57;;;16.20;1.00;;;;;;5056004;28;20553;-77
2022/06/16 02:11:04;;;;;;;9.57;4.93;;;16.20;1.00;;;;;;5057037;28;20463;-76
2022/06/16 02:13:35;;;;;;;9.07;5.10;;;16.10;1.00;;;;;;5059031;28;20928;-77
2022/06/16 02:16:09;;;;;;;7.60;4.40;;;16.10;1.00;;;;;;5059555;28;20488;-77
2022/06/16 02:18:40;;;;;;;8.53;4.80;;;16.10;1.00;;;;;;5056967;28;20649;-77
2022/06/16 02:21:12;;;;;;;11.03;5.37;;;16.10;1.00;;;;;;5055667;28;20562;-77
2022/06/16 02:23:40;;;;;;;12.00;7.30;;;16.10;1.00;;;;;;5056374;28;20459;-77
2022/06/16 02:26:07;;;;;;;8.97;5.27;;;16.00;1.00;;;;;;5057956;28;20503;-77
2022/06/16 02:28:43;;;;;;;9.60;5.10;;;16.10;1.00;;;;;;5056508;28;20472;-77
2022/06/16 02:31:27;;;;;;;9.40;5.40;;;16.00;1.00;;;;;;5057729;28;20831;-78
2022/06/16 02:34:05;;;;;;;8.63;4.80;;;16.00;1.00;;;;;;5056269;28;20534;-76
2022/06/16 02:36:57;;;;;;;10.13;5.33;;;15.90;1.00;;;;;;5055586;28;20463;-78
2022/06/16 02:39:38;;;;;;;9.63;6.03;;;15.90;1.00;;;;;;5050182;28;20460;-77
2022/06/16 02:42:17;;;;;;;8.97;4.83;;;15.90;1.00;;;;;;5053649;28;20477;-77
2022/06/16 02:44:51;;;;;;;8.70;4.83;;;15.80;1.00;;;;;;5053345;28;20463;-77
2022/06/16 02:47:48;;;;;;;8.80;5.13;;;15.80;1.00;;;;;;5053786;28;20500;-77
2022/06/16 02:50:27;;;;;;;10.73;4.97;;;15.80;1.00;;;;;;5057307;28;20494;-78
2022/06/16 02:53:02;;;;;;;10.67;6.27;;;15.80;1.00;;;;;;5056927;28;20503;-77
2022/06/16 02:55:34;;;;;;;10.53;5.70;;;15.80;1.00;;;;;;5056484;28;22193;-77
2022/06/16 02:58:03;;;;;;;9.77;5.53;;;15.80;1.00;;;;;;5055801;28;20547;-78
2022/06/16 03:00:35;;;;;;;11.37;5.63;;;15.90;1.00;;;;;;5052760;28;20777;-77
2022/06/16 03:03:20;;;;;;;9.00;5.80;;;15.90;1.00;;;;;;5056862;28;20480;-78
2022/06/16 03:05:51;;;;;;;10.83;5.23;;;15.90;1.00;;;;;;5055988;28;20975;-77
2022/06/16 03:08:18;;;;;;;12.33;6.27;;;15.90;1.00;;;;;;5054839;28;20459;-77
2022/06/16 03:10:54;;;;;;;8.70;5.70;;;15.90;1.00;;;;;;5057310;28;20511;-77
2022/06/16 03:13:23;;;;;;;11.30;5.50;;;15.80;1.00;;;;;;5064206;28;20486;-77
2022/06/16 03:15:52;;;;;;;10.63;5.90;;;15.80;1.00;;;;;;5059577;28;20462;-77
2022/06/16 03:18:21;;;;;;;9.27;5.30;;;15.80;1.00;;;;;;5059165;28;20451;-77
2022/06/16 03:20:49;;;;;;;11.17;6.53;;;15.80;1.00;;;;;;5061402;28;20448;-78
2022/06/16 03:23:18;;;;;;;11.77;6.20;;;15.80;1.00;;;;;;5064370;28;21073;-78
2022/06/16 03:25:46;;;;;;;8.87;5.40;;;15.80;1.00;;;;;;5065458;28;20454;-77
2022/06/16 03:28:14;;;;;;;13.80;5.70;;;15.90;1.00;;;;;;5064677;28;20470;-77
2022/06/16 03:30:42;;;;;;;11.07;5.90;;;16.00;1.00;;;;;;5059351;28;20964;-78
2022/06/16 03:33:10;;;;;;;11.50;5.67;;;16.00;1.00;;;;;;5062167;28;20475;-78
2022/06/16 03:35:39;;;;;;;10.60;6.27;;;16.00;1.00;;;;;;5051813;28;20457;-76
2022/06/16 03:38:07;;;;;;;8.70;5.20;;;16.00;1.00;;;;;;5060019;28;20464;-76
2022/06/16 03:40:34;;;;;;;9.07;4.90;;;16.00;1.00;;;;;;5062944;28;20472;-77
2022/06/16 03:43:01;;;;;;;12.57;6.57;;;16.00;1.00;;;;;;5061793;28;20471;-77
2022/06/16 03:45:28;;;;;;;10.60;6.20;;;16.00;1.00;;;;;;5070345;28;20466;-77
2022/06/16 03:47:55;;;;;;;14.00;6.50;;;15.90;1.00;;;;;;5067975;28;20523;-77
2022/06/16 03:50:22;;;;;;;13.23;6.60;;;15.90;1.00;;;;;;5062122;28;20547;-77
2022/06/16 03:52:50;;;;;;;10.60;5.70;;;15.90;1.00;;;;;;5062086;28;21088;-78
2022/06/16 03:55:17;;;;;;;11.53;6.60;;;15.90;1.00;;;;;;5065321;28;20541;-77
2022/06/16 03:57:45;;;;;;;8.50;5.20;;;15.90;1.00;;;;;;5058523;28;20922;-77
2022/06/16 04:00:14;;;;;;;9.70;5.80;;;15.80;1.00;;;;;;5058203;28;20838;-76
2022/06/16 04:02:42;;;;;;;11.80;6.97;;;15.80;1.00;;;;;;5051493;28;20589;-77
2022/06/16 04:05:10;;;;;;;12.20;6.67;;;15.90;1.00;;;;;;5054841;28;20462;-77
2022/06/16 04:07:37;;;;;;;9.20;6.00;;;16.00;1.00;;;;;;5058928;28;20474;-77
2022/06/16 04:10:07;;;;;;;13.20;7.37;;;16.10;1.00;;;;;;5060597;28;20451;-77
2022/06/16 04:12:36;;;;;;;15.40;6.80;;;16.10;1.00;;;;;;5055976;28;22113;-78
2022/06/16 04:15:03;;;;;;;15.33;8.67;;;16.10;1.00;;;;;;5062761;28;20471;-75
2022/06/16 04:17:30;;;;;;;10.47;5.73;;;16.20;1.00;;;;;;5059284;28;20494;-77
2022/06/16 04:20:15;;;;;;;14.53;6.90;;;16.20;1.00;;;;;;5059911;28;20563;-78
2022/06/16 04:22:43;;;;;;;11.00;5.67;;;16.10;1.00;;;;;;5059887;28;20472;-76
2022/06/16 04:25:16;;;;;;;14.27;6.90;;;16.00;1.00;;;;;;5060908;28;20459;-78
2022/06/16 04:27:43;;;;;;;8.67;6.10;;;16.00;1.00;;;;;;5057616;28;20463;-77
2022/06/16 04:30:11;;;;;;;13.13;7.70;;;16.00;1.00;;;;;;5058715;28;20483;-77
2022/06/16 04:32:39;;;;;;;11.10;6.50;;;16.00;1.00;;;;;;5058581;28;20478;-78
2022/06/16 04:35:07;;;;;;;11.60;6.20;;;16.00;1.00;;;;;;5061733;28;20451;-78
2022/06/16 04:37:34;;;;;;;13.67;7.10;;;16.10;1.00;;;;;;5054242;28;21364;-77
2022/06/16 04:40:01;;;;;;;13.37;11.83;;;16.10;1.00;;;;;;5051733;28;20839;-76
2022/06/16 04:42:31;;;;;;;14.43;7.27;;;16.20;1.00;;;;;;5057427;28;20537;-76
2022/06/16 04:44:57;;;;;;;10.43;6.60;;;16.20;1.00;;;;;;5058453;28;21109;-78
2022/06/16 04:47:25;;;;;;;11.83;7.37;;;16.20;1.00;;;;;;5057843;28;20609;-77
2022/06/16 04:49:52;;;;;;;9.60;6.00;;;16.20;1.00;;;;;;5057134;28;20820;-76
2022/06/16 04:52:19;;;;;;;8.63;5.40;;;16.20;1.00;;;;;;5054395;28;20615;-76
2022/06/16 04:54:47;;;;;;;10.03;5.47;;;16.20;1.00;;;;;;5060765;28;20481;-78
2022/06/16 04:57:14;;;;;;;10.30;6.40;;;16.20;1.00;;;;;;5059892;28;20502;-77
2022/06/16 04:59:43;;;;;;;10.10;6.43;;;16.30;1.00;;;;;;5060905;28;20467;-76
2022/06/16 05:02:10;;;;;;;12.97;6.80;;;16.30;1.00;;;;;;5059702;28;20487;-77
2022/06/16 05:04:39;;;;;;;14.30;7.50;;;16.30;1.00;;;;;;5055380;28;20456;-77
2022/06/16 05:07:06;;;;;;;10.63;5.90;;;16.30;1.00;;;;;;5055560;28;20491;-76
2022/06/16 05:09:34;;;;;;;11.57;6.07;;;16.30;1.00;;;;;;5054013;28;20413;-76
2022/06/16 05:12:01;;;;;;;13.10;6.33;;;16.40;1.00;;;;;;5058082;28;20479;-76
2022/06/16 05:14:28;;;;;;;13.00;6.87;;;16.40;1.00;;;;;;5057022;28;20462;-76
2022/06/16 05:16:57;;;;;;;11.83;6.60;;;16.50;1.00;;;;;;5058704;28;20974;-77
2022/06/16 05:19:24;;;;;;;10.53;5.87;;;16.50;1.00;;;;;;5057348;28;20977;-76
2022/06/16 05:21:52;;;;;;;10.60;6.10;;;16.70;1.00;;;;;;5058898;28;20470;-77
2022/06/16 05:24:19;;;;;;;14.27;7.23;;;16.80;1.00;;;;;;5060625;28;20462;-77
2022/06/16 05:26:46;;;;;;;12.33;6.87;;;16.90;1.00;;;;;;5054721;28;20563;-75
2022/06/16 05:29:14;;;;;;;12.63;5.77;;;17.10;1.00;;;;;;5057408;28;20568;-75
2022/06/16 05:31:42;;;;;;;13.00;6.07;;;17.30;1.00;;;;;;5060573;28;20481;-77
2022/06/16 05:34:10;;;;;;;14.60;6.43;;;17.30;1.00;;;;;;5060893;28;20457;-76
2022/06/16 05:36:37;;;;;;;11.00;6.60;;;17.30;1.00;;;;;;5036847;28;20517;-78
2022/06/16 05:39:05;;;;;;;9.03;5.37;;;17.40;1.00;;;;;;5081561;28;20485;-79
2022/06/16 05:41:32;;;;;;;10.23;5.77;;;17.40;1.00;;;;;;5071104;28;20442;-79
2022/06/16 05:43:59;;;;;;;18.00;6.97;;;17.50;1.00;;;;;;5067057;28;20423;-80
2022/06/16 05:46:26;;;;;;;9.13;5.30;;;17.60;1.00;;;;;;5064349;28;20475;-80
2022/06/16 05:48:52;;;;;;;9.53;5.63;;;17.70;1.00;;;;;;5060082;28;20423;-78
2022/06/16 05:51:22;;;;;;;8.87;5.80;;;17.90;1.00;;;;;;5059512;28;20470;-76
2022/06/16 05:53:49;;;;;;;8.83;5.10;;;18.00;1.00;;;;;;5059044;28;20473;-78
2022/06/16 05:56:16;;;;;;;11.03;4.87;;;18.00;1.00;;;;;;5059744;28;20462;-78
2022/06/16 05:58:44;;;;;;;8.93;5.07;;;18.00;1.00;;;;;;5072939;28;20605;-81
2022/06/16 06:01:13;;;;;;;9.43;6.10;;;18.10;1.00;;;;;;5055890;28;20972;-78
2022/06/16 06:03:42;;;;;;;9.13;5.97;;;18.10;1.00;;;;;;5067265;28;20868;-77
2022/06/16 06:06:09;;;;;;;15.47;9.90;;;18.10;1.00;;;;;;5061731;28;20456;-81
2022/06/16 06:16:58;;;;;;;10.17;4.87;;;18.40;1.00;;;;;;5065771;28;20450;-77
2022/06/16 06:19:25;;;;;;;13.53;7.23;;;18.50;1.00;;;;;;5057031;28;20463;-77
2022/06/16 06:22:00;;;;;;;9.70;5.63;;;18.70;1.00;;;;;;5058756;28;20503;-77
2022/06/16 06:24:30;;;;;;;16.10;5.37;;;18.90;1.00;;;;;;5057363;28;20466;-76
2022/06/16 06:26:58;;;;;;;9.60;6.23;;;19.20;1.00;;;;;;5057818;28;20424;-76
2022/06/16 06:29:25;;;;;;;10.63;4.60;;;19.40;1.00;;;;;;5058224;28;20574;-77
2022/06/16 06:31:52;;;;;;;9.90;4.77;;;19.40;1.00;;;;;;5060581;28;20586;-78
2022/06/16 06:34:19;;;;;;;8.90;5.37;;;19.60;1.00;;;;;;5061780;28;20925;-76
2022/06/16 06:36:47;;;;;;;14.30;6.10;;;19.70;1.00;;;;;;5060959;28;21003;-77
2022/06/16 06:39:13;;;;;;;10.23;4.50;;;19.90;1.00;;;;;;5065019;28;21115;-76
2022/06/16 06:41:42;;;;;;;14.13;5.87;;;20.20;1.00;;;;;;5048175;28;20480;-80
2022/06/16 06:44:11;;;;;;;11.83;4.80;;;20.50;1.00;;;;;;5063723;28;20467;-81
2022/06/16 06:46:38;;;;;;;10.97;5.00;;;20.80;1.00;;;;;;5066622;28;20440;-80
2022/06/16 06:49:05;;;;;;;8.40;4.73;;;21.00;1.00;;;;;;5066235;28;20597;-81
2022/06/16 06:51:35;;;;;;;8.57;4.30;;;21.00;1.00;;;;;;5067758;28;20542;-79
2022/06/16 06:54:02;;;;;;;9.50;4.80;;;21.00;1.00;;;;;;5063158;28;20562;-77
2022/06/16 06:56:30;;;;;;;9.43;5.00;;;21.00;1.00;;;;;;5060353;28;20407;-77
2022/06/16 06:59:00;;;;;;;10.57;4.53;;;20.90;1.00;;;;;;5054389;28;20476;-75
2022/06/16 07:01:28;;;;;;;11.93;5.77;;;20.70;1.00;;;;;;5059760;28;20584;-76
2022/06/16 07:03:54;;;;;;;9.97;4.63;;;20.60;1.00;;;;;;5069803;28;20892;-77
2022/06/16 07:06:22;;;;;;;8.13;4.47;;;20.60;1.00;;;;;;5062936;28;21281;-77
2022/06/16 07:08:48;;;;;;;8.13;4.67;;;20.60;1.00;;;;;;5066214;28;20447;-76
2022/06/16 07:11:17;;;;;;;8.40;4.17;;;20.70;1.00;;;;;;5059406;28;20471;-77
2022/06/16 07:13:44;;;;;;;9.57;4.80;;;20.90;1.00;;;;;;5065255;28;21007;-76
2022/06/16 07:16:12;;;;;;;9.43;4.80;;;21.00;1.00;;;;;;5064382;28;20499;-76
2022/06/16 07:18:39;;;;;;;9.43;5.30;;;21.20;1.00;;;;;;5063439;28;20546;-76
2022/06/16 07:21:07;;;;;;;11.70;4.53;;;21.40;1.00;;;;;;5061006;28;20479;-75
2022/06/16 07:23:35;;;;;;;14.30;4.23;;;21.60;1.00;;;;;;5061498;28;20483;-77
2022/06/16 07:26:02;;;;;;;7.43;4.10;;;21.90;1.00;;;;;;5057557;28;20460;-76
2022/06/16 07:28:29;;;;;;;9.93;4.40;;;22.10;1.00;;;;;;5063322;28;20465;-76
2022/06/16 07:30:56;;;;;;;7.57;3.90;;;22.30;1.00;;;;;;5063426;28;20574;-76
2022/06/16 07:33:24;;;;;;;12.60;5.50;;;22.40;1.00;;;;;;5065748;28;20463;-76
2022/06/16 07:35:55;;;;;;;9.43;4.97;;;22.50;1.00;;;;;;5065142;28;20623;-78
2022/06/16 07:38:25;;;;;;;10.83;4.70;;;22.60;1.00;;;;;;5062348;28;20459;-78
2022/06/16 07:41:30;;;;;;;9.40;4.47;;;22.80;1.00;;;;;;5059718;28;20818;-76
2022/06/16 07:43:39;;;;;;;9.23;4.20;;;23.10;1.00;;;;;;5064317;28;21022;-77
2022/06/16 07:46:06;;;;;;;9.17;5.50;;;23.50;1.00;;;;;;5063461;28;20559;-77
2022/06/16 07:48:37;;;;;;;8.73;3.93;;;23.70;1.00;;;;;;5065294;28;20905;-76
2022/06/16 07:51:05;;;;;;;6.27;4.30;;;23.70;1.00;;;;;;5065856;28;21912;-76
2022/06/16 07:53:32;;;;;;;9.00;4.20;;;23.70;1.00;;;;;;5059158;28;21345;-77
2022/06/16 07:55:59;;;;;;;7.53;4.47;;;23.50;1.00;;;;;;5064785;28;20475;-77
2022/06/16 07:58:30;;;;;;;11.50;3.80;;;23.40;1.00;;;;;;5063782;28;20880;-78
2022/06/16 08:00:57;;;;;;;8.00;3.73;;;23.30;1.00;;;;;;5060586;28;20463;-77
2022/06/16 08:03:26;;;;;;;9.77;5.73;;;23.20;1.00;;;;;;5059040;28;21192;-76
2022/06/16 08:05:55;;;;;;;7.90;3.20;;;23.30;1.00;;;;;;5063058;28;20484;-77
2022/06/16 08:08:23;;;;;;;9.97;3.67;;;23.30;1.00;;;;;;5064579;28;20847;-77
2022/06/16 08:10:52;;;;;;;11.10;3.83;;;23.30;1.00;;;;;;5060799;28;20927;-78
2022/06/16 08:13:19;;;;;;;6.63;3.80;;;23.20;1.00;;;;;;5058870;28;20470;-78
2022/06/16 08:15:46;;;;;;;8.43;3.97;;;23.00;1.00;;;;;;5058536;28;20455;-77
2022/06/16 08:18:15;;;;;;;9.07;3.93;;;22.90;1.00;;;;;;5059478;28;20451;-78
2022/06/16 08:20:42;;;;;;;8.37;4.27;;;22.90;1.00;;;;;;5055588;28;20463;-75
2022/06/16 08:23:11;;;;;;;7.80;3.90;;;23.00;1.00;;;;;;5059608;28;20561;-75
2022/06/16 08:25:40;;;;;;;7.50;4.40;;;23.30;1.00;;;;;;5060380;28;20551;-77
2022/06/16 08:28:07;;;;;;;5.90;3.40;;;23.40;1.00;;;;;;5061693;28;20840;-75
2022/06/16 08:30:35;;;;;;;6.20;3.47;;;23.50;1.00;;;;;;5062244;28;20479;-76
2022/06/16 08:33:02;;;;;;;12.57;3.77;;;23.80;1.00;;;;;;5058673;28;20482;-76
2022/06/16 08:35:30;;;;;;;5.33;3.20;;;23.90;1.00;;;;;;5057857;28;20475;-76
2022/06/16 08:37:58;;;;;;;6.43;3.27;;;24.00;1.00;;;;;;5059210;28;20574;-76
2022/06/16 08:40:26;;;;;;;8.10;3.47;;;24.00;1.00;;;;;;5064620;28;20462;-76
2022/06/16 08:42:58;;;;;;;6.47;3.30;;;24.00;1.00;;;;;;5063034;28;20567;-77
2022/06/16 08:45:37;;;;;;;12.53;5.43;;;24.00;1.00;;;;;;5064578;28;20450;-76
2022/06/16 08:48:21;;;;;;;6.20;3.47;;;24.30;1.00;;;;;;5060092;28;20470;-77
2022/06/16 08:50:55;;;;;;;7.40;3.70;;;24.50;1.00;;;;;;5056883;28;20471;-76
2022/06/16 08:53:45;;;;;;;5.57;3.50;;;24.90;1.00;;;;;;5063796;28;20513;-76
2022/06/16 08:56:20;;;;;;;6.43;2.97;;;25.10;1.00;;;;;;5063797;28;20984;-76
2022/06/16 08:58:58;;;;;;;6.37;3.53;;;25.10;1.00;;;;;;5060648;28;20510;-76
2022/06/16 09:01:33;;;;;;;6.20;3.40;;;25.20;1.00;;;;;;5059473;28;20475;-77
2022/06/16 09:04:04;;;;;;;6.87;4.03;;;25.30;1.00;;;;;;5057440;28;20490;-76
2022/06/16 09:06:40;;;;;;;8.50;3.80;;;25.40;1.00;;;;;;5062567;28;20455;-77
2022/06/16 09:10:14;;;;;;;8.53;3.50;;;25.50;1.00;;;;;;5062151;28;20544;-77
2022/06/16 09:12:14;;;;;;;6.77;4.90;;;25.90;1.00;;;;;;5054287;28;20873;-76
2022/06/16 09:17:42;;;;;;;7.80;5.50;;;26.70;1.00;;;;;;5060612;28;20456;-76
2022/06/16 09:20:16;;;;;;;16.90;8.10;;;27.10;1.00;;;;;;5052887;28;20473;-75
2022/06/16 09:23:04;;;;;;;12.00;8.13;;;27.40;1.00;;;;;;5060042;28;20502;-76
2022/06/16 09:25:45;;;;;;;14.80;13.30;;;27.50;1.00;;;;;;5062091;28;20462;-77
2022/06/16 09:28:18;;;;;;;24.40;22.00;;;27.80;1.00;;;;;;5060600;28;20470;-76
2022/06/16 09:30:49;;;;;;;22.83;20.40;;;27.80;1.00;;;;;;5055115;28;21029;-75
2022/06/16 09:33:19;;;;;;;21.00;18.80;;;27.90;1.00;;;;;;5057552;28;20943;-76
2022/06/16 09:35:52;;;;;;;15.43;13.83;;;27.80;1.00;;;;;;5057348;28;20462;-76
2022/06/16 09:38:24;;;;;;;16.50;10.93;;;27.60;1.00;;;;;;5061298;28;20967;-75
2022/06/16 09:40:56;;;;;;;17.63;15.90;;;27.80;1.00;;;;;;5061942;28;20457;-78
2022/06/16 09:43:32;;;;;;;19.23;17.50;;;29.00;1.00;;;;;;5063733;28;20594;-76
2022/06/16 09:46:03;;;;;;;18.93;15.83;;;30.30;1.00;;;;;;5059815;28;20443;-77
2022/06/16 09:48:34;;;;;;;11.13;9.03;;;31.20;1.00;;;;;;5057303;28;20469;-76
2022/06/16 09:51:07;;;;;;;10.17;6.27;;;31.30;1.00;;;;;;5059845;28;20463;-76
2022/06/16 09:53:39;;;;;;;7.83;4.00;;;31.30;1.00;;;;;;5061178;28;20475;-75
2022/06/16 09:56:11;;;;;;;7.90;4.13;;;31.60;1.00;;;;;;5061928;28;20596;-76
2022/06/16 09:58:49;;;;;;;6.13;3.40;;;32.30;1.00;;;;;;5058984;28;20483;-75
2022/06/16 10:01:19;;;;;;;6.77;3.27;;;33.10;1.00;;;;;;5060671;28;20534;-76
2022/06/16 10:03:57;;;;;;;8.03;4.10;;;33.60;1.00;;;;;;5063564;28;20476;-77
2022/06/16 10:06:40;;;;;;;4.87;2.90;;;33.80;1.00;;;;;;5057651;28;20876;-81
2022/06/16 10:09:15;;;;;;;6.33;3.50;;;34.30;1.00;;;;;;5051857;28;22912;-75
2022/06/16 10:11:51;;;;;;;5.10;3.80;;;34.90;1.00;;;;;;5059445;28;20572;-76
2022/06/16 10:14:27;;;;;;;8.30;4.57;;;35.50;1.00;;;;;;5061849;28;20551;-75
2022/06/16 10:16:58;;;;;;;4.53;3.27;;;36.10;1.00;;;;;;5062570;28;20538;-77
2022/06/16 10:19:29;;;;;;;4.60;3.10;;;36.30;1.00;;;;;;5065117;28;20543;-75
2022/06/16 10:22:01;;;;;;;6.60;4.33;;;36.00;1.00;;;;;;5067008;28;20458;-75
2022/06/16 10:24:33;;;;;;;5.03;3.70;;;35.00;1.00;;;;;;5064590;28;20476;-76
2022/06/16 10:27:01;;;;;;;5.37;3.23;;;35.20;1.00;;;;;;5060602;28;20456;-77
2022/06/16 10:29:31;;;;;;;3.33;3.03;;;35.70;1.00;;;;;;5064110;28;20539;-76
2022/06/16 10:32:00;;;;;;;5.53;3.70;;;35.70;1.00;;;;;;5061733;28;21638;-78
2022/06/16 10:34:31;;;;;;;4.17;3.60;;;35.10;1.00;;;;;;5064093;28;20490;-76
2022/06/16 10:37:05;;;;;;;6.40;3.30;;;33.80;1.00;;;;;;5063075;28;20465;-76
2022/06/16 10:39:43;;;;;;;9.10;3.67;;;33.50;1.00;;;;;;5059882;28;20962;-80
2022/06/16 10:42:20;;;;;;;10.27;4.67;;;33.30;1.00;;;;;;5060591;28;20602;-76
2022/06/16 10:44:54;;;;;;;8.00;3.27;;;33.20;1.00;;;;;;5062312;28;20462;-76
2022/06/16 10:47:25;;;;;;;16.97;6.47;;;33.40;1.00;;;;;;5066181;28;20913;-76
2022/06/16 10:49:53;;;;;;;6.20;4.23;;;33.40;1.00;;;;;;5067206;28;20486;-77
2022/06/16 10:52:28;;;;;;;6.97;3.33;;;33.40;1.00;;;;;;5068960;28;20526;-77
2022/06/16 10:55:02;;;;;;;7.63;4.70;;;33.70;1.00;;;;;;5061156;28;20562;-76
2022/06/16 10:57:32;;;;;;;5.97;3.80;;;33.80;1.00;;;;;;5069426;28;20426;-76
2022/06/16 11:00:08;;;;;;;6.30;3.17;;;33.60;1.00;;;;;;5064601;28;20505;-77
2022/06/16 11:02:39;;;;;;;10.10;4.03;;;32.90;1.00;;;;;;5061254;28;20490;-76
2022/06/16 11:05:11;;;;;;;4.60;3.27;;;32.30;1.00;;;;;;5062731;28;20506;-76
2022/06/16 11:07:40;;;;;;;6.90;4.70;;;31.90;1.00;;;;;;5063080;28;20459;-77
2022/06/16 11:10:11;;;;;;;8.03;3.60;;;31.70;1.00;;;;;;5066086;28;20809;-76
2022/06/16 11:12:40;;;;;;;7.47;3.50;;;31.60;1.00;;;;;;5065026;28;20475;-77
2022/06/16 11:15:22;;;;;;;6.80;3.00;;;31.60;1.00;;;;;;5064875;28;20488;-77
2022/06/16 11:17:53;;;;;;;6.20;4.13;;;31.40;1.00;;;;;;5066119;28;20450;-77
2022/06/16 11:20:31;;;;;;;7.13;4.43;;;31.00;1.00;;;;;;5061305;28;20491;-78
2022/06/16 11:22:59;;;;;;;5.63;4.13;;;30.70;1.00;;;;;;5062872;28;21126;-78
2022/06/16 11:25:31;;;;;;;5.63;3.77;;;30.60;1.00;;;;;;5063430;28;20483;-80
2022/06/16 11:28:02;;;;;;;5.90;3.43;;;30.60;1.00;;;;;;5060425;28;20439;-78
2022/06/16 11:30:37;;;;;;;4.77;3.70;;;30.90;1.00;;;;;;5060779;28;20554;-77
2022/06/16 11:33:06;;;;;;;4.40;3.33;;;30.80;1.00;;;;;;5045869;28;20495;-78
2022/06/16 11:35:51;;;;;;;6.60;3.90;;;30.70;1.00;;;;;;5041601;28;20514;-79
2022/06/16 11:38:23;;;;;;;6.73;4.10;;;30.50;1.00;;;;;;5058653;28;20455;-77
2022/06/16 11:40:57;;;;;;;5.33;3.80;;;30.40;1.00;;;;;;5055436;28;20482;-77
2022/06/16 11:43:45;;;;;;;5.40;3.03;;;31.20;1.00;;;;;;5054906;28;20463;-76
2022/06/16 11:46:21;;;;;;;4.63;3.13;;;33.00;1.00;;;;;;5061188;28;20609;-77
2022/06/16 11:49:03;;;;;;;4.17;3.17;;;35.00;1.00;;;;;;5067291;28;20514;-77
2022/06/16 11:51:37;;;;;;;4.77;2.93;;;36.40;1.00;;;;;;5061193;28;20577;-75
2022/06/16 11:54:16;;;;;;;5.03;2.80;;;37.50;1.00;;;;;;5057905;28;21189;-77
2022/06/16 11:56:46;;;;;;;8.77;2.83;;;38.60;1.00;;;;;;5061194;28;21779;-76
2022/06/16 11:59:27;;;;;;;4.60;3.27;;;39.20;1.00;;;;;;5058608;28;20673;-77
2022/06/16 12:02:05;;;;;;;5.27;3.27;;;38.50;1.00;;;;;;5061746;28;20490;-78
2022/06/16 12:04:52;;;;;;;4.07;2.93;;;38.60;1.00;;;;;;5056499;28;20486;-77
2022/06/16 12:08:03;;;;;;;3.83;3.43;;;39.20;1.00;;;;;;5066785;28;20537;-78
2022/06/16 12:10:37;;;;;;;4.80;3.40;;;40.20;1.00;;;;;;5059243;28;20485;-78
2022/06/16 12:13:11;;;;;;;6.83;2.47;;;40.50;1.00;;;;;;5064082;28;20475;-77
2022/06/16 12:15:44;;;;;;;4.57;2.70;;;40.10;1.00;;;;;;5060078;28;20463;-76
2022/06/16 12:18:23;;;;;;;4.23;3.13;;;40.10;1.00;;;;;;5061255;28;20471;-78
2022/06/16 12:21:02;;;;;;;5.83;2.77;;;40.00;1.00;;;;;;5058961;28;20916;-79
2022/06/16 12:23:36;;;;;;;4.23;3.13;;;39.70;1.00;;;;;;5059820;28;20606;-77
2022/06/16 12:26:09;;;;;;;6.63;3.17;;;38.60;1.00;;;;;;5062992;28;20461;-78
2022/06/16 12:28:47;;;;;;;6.10;3.90;;;36.70;1.00;;;;;;5063068;28;21025;-77
2022/06/16 12:31:20;;;;;;;5.80;2.93;;;35.30;1.00;;;;;;5061006;28;20472;-77
2022/06/16 12:33:55;;;;;;;9.13;4.10;;;33.00;1.00;;;;;;5062435;28;21077;-77
2022/06/16 12:36:27;;;;;;;6.03;3.30;;;33.00;1.00;;;;;;5058984;28;20447;-77
2022/06/16 12:38:59;;;;;;;4.80;2.90;;;34.80;1.00;;;;;;5049222;28;21354;-77
2022/06/16 12:41:30;;;;;;;4.80;2.90;;;36.80;1.00;;;;;;5057910;28;20452;-79
2022/06/16 12:44:01;;;;;;;5.73;2.93;;;38.30;1.00;;;;;;5060235;28;21463;-77
2022/06/16 12:46:34;;;;;;;8.07;3.43;;;39.40;1.00;;;;;;5059678;28;20438;-77
2022/06/16 12:49:09;;;;;;;3.57;2.90;;;40.00;1.00;;;;;;5059550;28;20440;-77
2022/06/16 12:51:44;;;;;;;5.37;2.90;;;40.20;1.00;;;;;;5043709;28;20609;-77
2022/06/16 12:54:16;;;;;;;3.33;3.03;;;40.10;1.00;;;;;;5059101;28;20425;-78
2022/06/16 12:56:48;;;;;;;3.47;2.40;;;40.70;1.00;;;;;;5053796;28;20252;-78
2022/06/16 12:59:20;;;;;;;5.20;3.20;;;40.90;1.00;;;;;;5058506;28;20577;-78
2022/06/16 13:01:52;;;;;;;4.40;2.90;;;40.60;1.00;;;;;;5057981;28;20455;-79
2022/06/16 13:04:24;;;;;;;4.07;2.60;;;40.40;1.00;;;;;;5061090;28;20542;-80
2022/06/16 13:06:52;;;;;;;8.57;4.63;;;40.70;1.00;;;;;;5063297;28;20471;-79
2022/06/16 13:09:19;;;;;;;2.90;2.60;;;41.00;1.00;;;;;;5052453;28;20488;-79
2022/06/16 13:11:52;;;;;;;4.00;2.57;;;41.30;1.00;;;;;;5061226;28;20464;-81
2022/06/16 13:14:23;;;;;;;5.73;2.93;;;41.70;1.00;;;;;;5045483;28;20467;-80
2022/06/16 13:16:55;;;;;;;3.57;2.63;;;40.80;1.00;;;;;;5062231;28;20523;-81
2022/06/16 13:19:26;;;;;;;3.97;2.60;;;39.70;1.00;;;;;;5059761;28;20944;-80
2022/06/16 13:21:59;;;;;;;3.37;2.40;;;39.40;1.00;;;;;;5065420;28;20466;-80
2022/06/16 13:24:39;;;;;;;7.50;4.00;;;38.20;1.00;;;;;;5050597;28;20495;-80
2022/06/16 13:27:11;;;;;;;3.67;2.80;;;37.50;1.00;;;;;;5045046;28;21046;-80
2022/06/16 13:29:59;;;;;;;5.07;3.10;;;37.70;1.00;;;;;;5055404;28;20475;-79
2022/06/16 13:32:37;;;;;;;8.03;5.10;;;37.10;1.00;;;;;;5048196;28;20455;-80